Time,TemperatureF,DewpointF,PressureIn,WindDirection,WindDirectionDegrees,WindSpeedMPH,WindSpeedGustMPH,Humidity,HourlyPrecipIn,Conditions,Clouds,dailyrainin,SoftwareType,DateUTC
2013-04-12 00:01:00,51.0,42.0,29.81,North,360,13.0,21.0,72,0.00,,,0.00,,2013-04-12 07:01:00,
2013-04-12 00:11:00,51.0,42.0,29.81,North,360,13.0,21.0,72,0.00,,,0.00,,2013-04-12 07:11:00,
2013-04-12 00:22:00,51.0,43.0,29.81,NNE,29,16.0,23.0,73,0.00,,,0.00,,2013-04-12 07:22:00,
2013-04-12 00:31:00,51.0,43.0,29.81,North,355,14.0,24.0,73,0.00,,,0.00,,2013-04-12 07:31:00,
2013-04-12 00:42:00,51.0,43.0,29.81,North,355,14.0,24.0,73,0.00,,,0.00,,2013-04-12 07:42:00,
2013-04-12 00:52:00,52.0,43.0,29.81,North,9,10.0,23.0,70,0.00,,,0.00,,2013-04-12 07:52:00,
2013-04-12 01:02:00,52.0,43.0,29.81,North,355,13.0,22.0,70,0.00,,,0.00,,2013-04-12 08:02:00,
2013-04-12 01:12:00,52.0,43.0,29.81,North,355,13.0,22.0,70,0.00,,,0.00,,2013-04-12 08:12:00,
2013-04-12 01:21:00,52.0,43.0,29.81,North,355,13.0,22.0,70,0.00,,,0.00,,2013-04-12 08:21:00,
2013-04-12 01:42:00,51.0,42.0,29.81,North,5,16.0,25.0,72,0.00,,,0.00,,2013-04-12 08:42:00,
2013-04-12 01:52:00,51.0,42.0,29.80,NNW,348,11.0,23.0,72,0.00,,,0.00,,2013-04-12 08:52:00,
2013-04-12 02:02:00,51.0,42.0,29.80,NNE,26,14.0,23.0,70,0.00,,,0.00,,2013-04-12 09:02:00,
2013-04-12 02:11:00,51.0,42.0,29.80,NNE,26,14.0,23.0,70,0.00,,,0.00,,2013-04-12 09:11:00,
2013-04-12 02:21:00,51.0,42.0,29.80,NE,34,10.0,24.0,72,0.00,,,0.00,,2013-04-12 09:21:00,
2013-04-12 02:32:00,51.0,42.0,29.79,NNW,337,15.0,24.0,71,0.00,,,0.00,,2013-04-12 09:32:00,
2013-04-12 02:42:00,51.0,42.0,29.79,NNW,337,15.0,24.0,71,0.00,,,0.00,,2013-04-12 09:42:00,
2013-04-12 02:52:00,52.0,42.0,29.79,North,355,13.0,21.0,69,0.00,,,0.00,,2013-04-12 09:52:00,
2013-04-12 03:02:00,52.0,42.0,29.79,North,355,13.0,21.0,69,0.00,,,0.00,,2013-04-12 10:02:00,
2013-04-12 03:12:00,52.0,41.0,29.78,North,360,11.0,18.0,66,0.00,,,0.00,,2013-04-12 10:12:00,
2013-04-12 03:22:00,52.0,41.0,29.78,North,360,11.0,18.0,66,0.00,,,0.00,,2013-04-12 10:22:00,
2013-04-12 03:33:00,53.0,40.0,29.78,North,351,6.0,14.0,61,0.00,,,0.00,,2013-04-12 10:33:00,
2013-04-12 03:42:00,53.0,40.0,29.78,North,351,6.0,14.0,61,0.00,,,0.00,,2013-04-12 10:42:00,
2013-04-12 03:53:00,53.0,38.0,29.78,North,355,6.0,16.0,56,0.00,,,0.00,,2013-04-12 10:53:00,
2013-04-12 04:02:00,53.0,39.0,29.77,NNE,23,10.0,18.0,59,0.00,,,0.00,,2013-04-12 11:02:00,
2013-04-12 04:11:00,53.0,39.0,29.77,NNE,23,10.0,18.0,59,0.00,,,0.00,,2013-04-12 11:11:00,
2013-04-12 04:21:00,57.0,34.0,29.77,NNW,332,3.0,6.0,41,0.00,,,0.00,,2013-04-12 11:21:00,
2013-04-12 04:32:00,60.0,32.0,29.76,North,355,6.0,9.0,35,0.00,,,0.00,,2013-04-12 11:32:00,
2013-04-12 04:51:00,58.0,34.0,29.76,NNW,335,3.0,7.0,40,0.00,,,0.00,,2013-04-12 11:51:00,
2013-04-12 05:02:00,55.0,32.0,29.76,North,355,3.0,5.0,42,0.00,,,0.00,,2013-04-12 12:02:00,
2013-04-12 05:21:00,55.0,33.0,29.76,North,355,4.0,8.0,44,0.00,,,0.00,,2013-04-12 12:21:00,
2013-04-12 05:31:00,55.0,32.0,29.77,North,350,4.0,6.0,41,0.00,,,0.00,,2013-04-12 12:31:00,
2013-04-12 05:52:00,53.0,37.0,29.78,North,5,6.0,13.0,54,0.00,,,0.00,,2013-04-12 12:52:00,
2013-04-12 06:02:00,53.0,37.0,29.78,North,5,6.0,13.0,54,0.00,,,0.00,,2013-04-12 13:02:00,
2013-04-12 06:12:00,53.0,37.0,29.78,North,5,6.0,13.0,54,0.00,,,0.00,,2013-04-12 13:12:00,
2013-04-12 06:21:00,51.0,40.0,29.79,North,355,11.0,18.0,65,0.00,,,0.00,,2013-04-12 13:21:00,
2013-04-12 06:31:00,50.0,40.0,29.80,North,360,11.0,18.0,69,0.00,,,0.00,,2013-04-12 13:31:00,
2013-04-12 06:43:00,50.0,40.0,29.80,North,360,11.0,18.0,69,0.00,,,0.00,,2013-04-12 13:43:00,
2013-04-12 06:52:00,50.0,40.0,29.80,North,360,11.0,18.0,69,0.00,,,0.00,,2013-04-12 13:52:00,
2013-04-12 07:02:00,50.0,41.0,29.81,North,360,7.0,14.0,70,0.00,,,0.00,,2013-04-12 14:02:00,
2013-04-12 07:11:00,50.0,41.0,29.81,North,360,7.0,14.0,70,0.00,,,0.00,,2013-04-12 14:11:00,
2013-04-12 07:22:00,52.0,41.0,29.82,North,355,8.0,15.0,67,0.00,,,0.00,,2013-04-12 14:22:00,
2013-04-12 07:32:00,52.0,41.0,29.82,NNW,341,10.0,20.0,66,0.00,,,0.00,,2013-04-12 14:32:00,
2013-04-12 07:41:00,52.0,41.0,29.82,NNW,341,10.0,20.0,66,0.00,,,0.00,,2013-04-12 14:41:00,
2013-04-12 07:53:00,53.0,41.0,29.83,NNE,15,7.0,12.0,63,0.00,,,0.00,,2013-04-12 14:53:00,
2013-04-12 08:01:00,53.0,40.0,29.83,North,350,9.0,13.0,62,0.00,,,0.00,,2013-04-12 15:01:00,
2013-04-12 08:11:00,53.0,40.0,29.83,North,350,9.0,13.0,62,0.00,,,0.00,,2013-04-12 15:11:00,
2013-04-12 08:22:00,53.0,42.0,29.83,North,360,10.0,17.0,67,0.00,,,0.00,,2013-04-12 15:22:00,
2013-04-12 08:33:00,53.0,42.0,29.83,North,360,9.0,15.0,65,0.00,,,0.00,,2013-04-12 15:33:00,
2013-04-12 08:42:00,53.0,42.0,29.83,North,360,9.0,15.0,65,0.00,,,0.00,,2013-04-12 15:42:00,
2013-04-12 08:53:00,55.0,43.0,29.84,North,5,12.0,17.0,64,0.00,,,0.00,,2013-04-12 15:53:00,
2013-04-12 09:03:00,55.0,43.0,29.84,North,355,9.0,15.0,65,0.00,,,0.00,,2013-04-12 16:03:00,
2013-04-12 09:12:00,55.0,43.0,29.84,North,355,9.0,15.0,65,0.00,,,0.00,,2013-04-12 16:12:00,
2013-04-12 09:22:00,55.0,43.0,29.85,North,360,11.0,16.0,63,0.00,,,0.00,,2013-04-12 16:22:00,
2013-04-12 09:32:00,57.0,45.0,29.85,North,9,11.0,16.0,63,0.00,,,0.00,,2013-04-12 16:32:00,
2013-04-12 09:42:00,57.0,45.0,29.85,North,9,11.0,16.0,63,0.00,,,0.00,,2013-04-12 16:42:00,
2013-04-12 09:52:00,58.0,44.0,29.86,North,360,9.0,13.0,59,0.00,,,0.00,,2013-04-12 16:52:00,
2013-04-12 10:02:00,58.0,44.0,29.86,NNW,348,8.0,13.0,59,0.00,,,0.00,,2013-04-12 17:02:00,
2013-04-12 10:12:00,58.0,44.0,29.86,NNW,348,8.0,13.0,59,0.00,,,0.00,,2013-04-12 17:12:00,
2013-04-12 10:22:00,62.0,43.0,29.86,NNW,348,2.0,6.0,49,0.00,,,0.00,,2013-04-12 17:22:00,
2013-04-12 10:32:00,62.0,44.0,29.87,North,350,6.0,15.0,51,0.00,,,0.00,,2013-04-12 17:32:00,
2013-04-12 10:44:00,62.0,44.0,29.87,North,350,6.0,15.0,51,0.00,,,0.00,,2013-04-12 17:44:00,
2013-04-12 11:06:00,67.0,37.0,29.88,SSW,199,4.0,9.0,33,0.00,,,0.00,,2013-04-12 18:06:00,
2013-04-12 11:29:00,67.0,38.0,29.88,SE,128,2.0,8.0,34,0.00,,,0.00,,2013-04-12 18:29:00,
2013-04-12 12:32:00,68.0,38.0,29.88,SW,218,5.0,10.0,33,0.00,,,0.00,,2013-04-12 19:32:00,
2013-04-12 12:42:00,68.0,38.0,29.88,SW,218,5.0,10.0,33,0.00,,,0.00,,2013-04-12 19:42:00,
2013-04-12 12:52:00,68.0,37.0,29.87,SSW,198,5.0,12.0,32,0.00,,,0.00,,2013-04-12 19:52:00,
2013-04-12 13:01:00,69.0,35.0,29.87,SSW,200,7.0,12.0,29,0.00,,,0.00,,2013-04-12 20:01:00,
2013-04-12 13:11:00,69.0,35.0,29.87,SSW,200,7.0,12.0,29,0.00,,,0.00,,2013-04-12 20:11:00,
2013-04-12 13:21:00,69.0,33.0,29.86,NW,310,3.0,11.0,26,0.00,,,0.00,,2013-04-12 20:21:00,
2013-04-12 13:32:00,69.0,33.0,29.86,SSE,160,5.0,13.0,26,0.00,,,0.00,,2013-04-12 20:32:00,
2013-04-12 13:42:00,69.0,33.0,29.86,SSE,160,5.0,13.0,26,0.00,,,0.00,,2013-04-12 20:42:00,
2013-04-12 13:52:00,71.0,42.0,29.85,North,360,4.0,8.0,35,0.00,,,0.00,,2013-04-12 20:52:00,
2013-04-12 14:01:00,68.0,43.0,29.85,North,360,7.0,10.0,40,0.00,,,0.00,,2013-04-12 21:01:00,
2013-04-12 14:11:00,68.0,43.0,29.85,North,360,7.0,10.0,40,0.00,,,0.00,,2013-04-12 21:11:00,
2013-04-12 14:21:00,68.0,43.0,29.85,North,5,7.0,9.0,41,0.00,,,0.00,,2013-04-12 21:21:00,
2013-04-12 14:32:00,69.0,44.0,29.84,West,276,6.0,12.0,40,0.00,,,0.00,,2013-04-12 21:32:00,
2013-04-12 14:42:00,69.0,44.0,29.84,West,276,6.0,12.0,40,0.00,,,0.00,,2013-04-12 21:42:00,
2013-04-12 14:52:00,69.0,43.0,29.84,NNW,336,8.0,12.0,39,0.00,,,0.00,,2013-04-12 21:52:00,
2013-04-12 15:02:00,69.0,44.0,29.84,NW,306,7.0,13.0,40,0.00,,,0.00,,2013-04-12 22:02:00,
2013-04-12 15:12:00,69.0,44.0,29.84,NW,306,7.0,13.0,40,0.00,,,0.00,,2013-04-12 22:12:00,
2013-04-12 15:22:00,69.0,46.0,29.84,North,360,7.0,12.0,44,0.00,,,0.00,,2013-04-12 22:22:00,
2013-04-12 15:32:00,69.0,42.0,29.83,North,5,8.0,12.0,38,0.00,,,0.00,,2013-04-12 22:32:00,
2013-04-12 15:42:00,69.0,42.0,29.83,North,5,8.0,12.0,38,0.00,,,0.00,,2013-04-12 22:42:00,
2013-04-12 15:52:00,68.0,41.0,29.83,West,273,8.0,15.0,37,0.00,,,0.00,,2013-04-12 22:52:00,
2013-04-12 16:03:00,69.0,41.0,29.83,NW,316,8.0,13.0,36,0.00,,,0.00,,2013-04-12 23:03:00,
2013-04-12 16:12:00,68.0,42.0,29.82,North,360,8.0,14.0,39,0.00,,,0.00,,2013-04-12 23:12:00,
2013-04-12 16:21:00,68.0,42.0,29.82,North,360,8.0,14.0,39,0.00,,,0.00,,2013-04-12 23:21:00,
2013-04-12 16:32:00,68.0,41.0,29.82,North,5,10.0,15.0,38,0.00,,,0.00,,2013-04-12 23:32:00,
2013-04-12 16:42:00,68.0,41.0,29.82,North,5,10.0,15.0,38,0.00,,,0.00,,2013-04-12 23:42:00,
2013-04-12 16:52:00,68.0,41.0,29.82,North,5,10.0,15.0,38,0.00,,,0.00,,2013-04-12 23:52:00,
2013-04-12 17:01:00,68.0,37.0,29.82,North,360,10.0,17.0,32,0.00,,,0.00,,2013-04-13 00:01:00,
2013-04-12 17:11:00,68.0,37.0,29.82,North,360,10.0,17.0,32,0.00,,,0.00,,2013-04-13 00:11:00,
2013-04-12 17:22:00,68.0,39.0,29.82,North,355,9.0,13.0,34,0.00,,,0.00,,2013-04-13 00:22:00,
2013-04-12 17:32:00,67.0,40.0,29.82,North,360,8.0,14.0,37,0.00,,,0.00,,2013-04-13 00:32:00,
2013-04-12 17:41:00,67.0,40.0,29.82,North,360,8.0,14.0,37,0.00,,,0.00,,2013-04-13 00:41:00,
2013-04-12 17:52:00,66.0,39.0,29.82,North,355,10.0,14.0,37,0.00,,,0.00,,2013-04-13 00:52:00,
2013-04-12 18:01:00,65.0,43.0,29.82,NNW,332,7.0,13.0,45,0.00,,,0.00,,2013-04-13 01:01:00,
2013-04-12 18:11:00,65.0,43.0,29.82,NNW,332,7.0,13.0,45,0.00,,,0.00,,2013-04-13 01:11:00,
2013-04-12 18:21:00,62.0,44.0,29.83,NNE,22,9.0,14.0,51,0.00,,,0.00,,2013-04-13 01:21:00,
2013-04-12 18:32:00,61.0,44.0,29.83,NNW,348,9.0,12.0,54,0.00,,,0.00,,2013-04-13 01:32:00,
2013-04-12 19:23:00,60.0,42.0,29.83,North,355,9.0,13.0,52,0.00,,,0.00,,2013-04-13 02:23:00,
2013-04-12 19:33:00,59.0,42.0,29.83,NNW,348,8.0,13.0,54,0.00,,,0.00,,2013-04-13 02:33:00,
2013-04-12 19:42:00,59.0,42.0,29.83,NNW,348,8.0,13.0,54,0.00,,,0.00,,2013-04-13 02:42:00,
2013-04-12 19:53:00,58.0,40.0,29.83,North,350,7.0,11.0,51,0.00,,,0.00,,2013-04-13 02:53:00,
2013-04-12 20:01:00,58.0,37.0,29.84,NW,317,7.0,11.0,45,0.00,,,0.00,,2013-04-13 03:01:00,
2013-04-12 20:11:00,58.0,37.0,29.84,NW,317,7.0,11.0,45,0.00,,,0.00,,2013-04-13 03:11:00,
2013-04-12 20:22:00,58.0,38.0,29.85,North,350,8.0,12.0,47,0.00,,,0.00,,2013-04-13 03:22:00,
2013-04-12 20:32:00,58.0,40.0,29.85,North,360,7.0,13.0,51,0.00,,,0.00,,2013-04-13 03:32:00,
2013-04-12 20:42:00,58.0,40.0,29.85,North,360,7.0,13.0,51,0.00,,,0.00,,2013-04-13 03:42:00,
2013-04-12 20:53:00,57.0,40.0,29.85,NNW,345,8.0,12.0,53,0.00,,,0.00,,2013-04-13 03:53:00,
2013-04-12 21:02:00,57.0,40.0,29.85,NNW,345,8.0,12.0,53,0.00,,,0.00,,2013-04-13 04:02:00,
2013-04-12 21:12:00,57.0,40.0,29.85,NNW,345,8.0,12.0,53,0.00,,,0.00,,2013-04-13 04:12:00,
2013-04-12 21:22:00,57.0,40.0,29.87,North,355,8.0,14.0,53,0.00,,,0.00,,2013-04-13 04:22:00,
2013-04-12 21:33:00,57.0,40.0,29.87,North,355,8.0,14.0,53,0.00,,,0.00,,2013-04-13 04:33:00,
2013-04-12 21:42:00,57.0,40.0,29.87,North,355,8.0,14.0,53,0.00,,,0.00,,2013-04-13 04:42:00,
2013-04-12 21:53:00,57.0,39.0,29.87,NNE,23,8.0,10.0,51,0.00,,,0.00,,2013-04-13 04:53:00,
2013-04-12 22:02:00,57.0,37.0,29.87,North,355,7.0,9.0,47,0.00,,,0.00,,2013-04-13 05:02:00,
2013-04-12 22:12:00,57.0,37.0,29.87,North,355,7.0,9.0,47,0.00,,,0.00,,2013-04-13 05:12:00,
2013-04-12 22:22:00,60.0,34.0,29.87,NW,315,7.0,13.0,37,0.00,,,0.00,,2013-04-13 05:22:00,
2013-04-12 22:32:00,60.0,37.0,29.87,NNW,346,3.0,12.0,42,0.00,,,0.00,,2013-04-13 05:32:00,
2013-04-12 22:42:00,60.0,37.0,29.87,NNW,346,3.0,12.0,42,0.00,,,0.00,,2013-04-13 05:42:00,
2013-04-12 22:52:00,59.0,38.0,29.87,North,350,6.0,14.0,45,0.00,,,0.00,,2013-04-13 05:52:00,
2013-04-12 23:01:00,57.0,42.0,29.88,North,360,7.0,14.0,58,0.00,,,0.00,,2013-04-13 06:01:00,
2013-04-12 23:11:00,57.0,42.0,29.88,North,360,7.0,14.0,58,0.00,,,0.00,,2013-04-13 06:11:00,
2013-04-12 23:21:00,57.0,42.0,29.88,North,360,8.0,15.0,58,0.00,,,0.00,,2013-04-13 06:21:00,
2013-04-12 23:33:00,57.0,41.0,29.88,North,355,8.0,17.0,56,0.00,,,0.00,,2013-04-13 06:33:00,
2013-04-12 23:42:00,57.0,41.0,29.88,North,355,8.0,17.0,56,0.00,,,0.00,,2013-04-13 06:42:00,
2013-04-12 23:54:00,57.0,40.0,29.88,NNE,12,9.0,24.0,53,0.00,,,0.00,,2013-04-13 06:54:00,